Latest Weather Observations for Cleve Airport

IDS60801

Issued at 1:01 am CST Tuesday 22 August 2017 (issued every 30 minutes, with the page automatically refreshed every 10 minutes)

About weather observations | Map of weather stations | Latest weather observations for SA | Other Formats
Station Details ID: 018116 Name: CLEVE AERODROME Lat: -33.71 Lon: 136.50 Height: 175.0 m
Data from the previous 72 hours. | See also: Recent months at Cleve Airport
Date/Time
CST
Temp
°C
App
Temp
°C
Dew
Point
°C
Rel
Hum
%
Delta-T
°C
Wind Press
QNH
hPa
Press
MSL
hPa
Rain since
9am
mm
Dir  Spd
km/h
Gust
km/h
Spd
kts
Gust
kts
22/01:00am 10.3 7.6 7.5 83 1.3 SW 11 15 6 8 1020.3 1020.3 0.4
22/12:30am 10.1 8.1 8.7 91 0.7 WSW 9 11 5 6 1020.3 1020.3 0.4
22/12:00am 10.2 8.2 8.6 90 0.8 WSW 9 9 5 5 1020.4 1020.5 0.4
 
Date/Time
CST
Temp
°C
App
Temp
°C
Dew
Point
°C
Rel
Hum
%
Delta-T
°C
Wind Press
QNH
hPa
Press
MSL
hPa
Rain since
9am
mm
Dir  Spd
km/h
Gust
km/h
Spd
kts
Gust
kts
21/11:30pm 10.1 7.7 8.7 91 0.7 SW 11 15 6 8 1020.4 1020.5 0.4
21/11:00pm 10.3 7.9 10.0 98 0.2 WSW 13 19 7 10 1020.2 1020.2 0.4
21/10:30pm 10.5 8.2 10.5 100 0.0 WSW 13 17 7 9 1020.2 1020.2 0.4
21/10:00pm 10.6 8.7 10.6 100 0.0 WSW 11 13 6 7 1020.2 1020.2 0.4
21/09:30pm 10.6 8.3 10.6 100 0.0 SW 13 17 7 9 1020.1 1020.1 0.4
21/09:00pm 10.6 8.7 10.6 100 0.0 WSW 11 15 6 8 1019.8 1019.8 0.4
21/08:30pm 10.8 8.2 10.8 100 0.0 WSW 15 19 8 10 1019.4 1019.4 0.4
21/08:00pm 11.0 8.9 11.0 100 0.0 WSW 13 17 7 9 1019.0 1019.0 0.4
21/07:30pm 11.2 8.4 11.2 100 0.0 SW 17 20 9 11 1018.5 1018.5 0.4
21/07:00pm 11.4 8.2 11.4 100 0.0 WSW 19 24 10 13 1018.1 1018.1 0.4
21/06:30pm 11.9 8.4 10.3 90 0.8 SW 19 30 10 16 1017.7 1017.8 0.0
21/06:00pm 12.2 9.8 10.1 87 1.1 SSW 13 17 7 9 1017.1 1017.2 0.0
21/05:30pm 12.6 8.9 10.3 86 1.2 SSW 20 30 11 16 1016.5 1016.6 0.0
21/05:00pm 12.5 8.6 10.9 90 0.8 SSW 22 37 12 20 1015.8 1015.9 0.0
21/04:30pm 14.1 10.3 11.1 82 1.6 SSW 22 28 12 15 1015.2 1015.2 0.0
21/04:00pm 14.0 9.4 11.0 82 1.6 SSW 26 35 14 19 1014.8 1014.8 0.0
21/03:30pm 13.4 9.1 10.9 85 1.3 S 24 33 13 18 1014.3 1014.3 0.0
21/03:00pm 14.4 8.7 9.8 74 2.4 SSW 30 41 16 22 1013.8 1013.8 0.0
21/02:30pm 13.5 9.3 11.2 86 1.2 SSW 24 33 13 18 1013.5 1013.5 0.0
21/02:00pm 16.0 10.9 10.5 70 2.9 SW 28 43 15 23 1012.9 1012.9 0.0
21/01:30pm 15.6 10.1 10.6 72 2.7 SSW 30 39 16 21 1012.6 1012.6 0.0
21/01:00pm 15.4 9.1 9.7 69 3.0 SSW 33 46 18 25 1012.5 1012.5 0.0
21/12:30pm 14.9 8.5 9.5 70 2.8 SSW 33 50 18 27 1012.4 1012.4 0.0
21/12:16pm 14.9 9.2 9.9 72 2.6 SW 30 48 16 26 1012.5 1012.5 0.0
21/12:00pm 14.3 7.9 9.3 72 2.6 SSW 33 50 18 27 1012.4 1012.4 0.0
21/11:42am 14.1 8.4 9.7 75 2.3 SSW 30 48 16 26 1012.2 1012.2 0.0
21/11:30am 14.3 7.5 9.3 72 2.6 SSW 35 48 19 26 1011.9 1012.0 0.0
21/11:00am 13.2 6.7 10.4 83 1.5 SW 35 46 19 25 1011.5 1011.6 0.0
21/10:30am 13.1 6.1 10.1 82 1.6 SW 37 54 20 29 1010.9 1011.0 0.0
21/10:21am 13.1 6.7 10.6 85 1.3 WSW 35 54 19 29 1010.6 1010.6 0.0
21/10:00am 13.1 5.9 10.6 85 1.3 SW 39 54 21 29 1010.0 1010.0 0.0
21/09:30am 13.1 7.7 12.2 94 0.5 WSW 32 41 17 22 1009.6 1009.6 0.0
21/09:00am 12.6 7.6 12.3 98 0.2 WSW 30 43 16 23 1009.0 1009.0 3.0
21/08:30am 12.2 6.8 12.2 100 0.0 W 32 44 17 24 1008.3 1008.3 3.0
21/08:00am 11.7 6.2 11.7 100 0.0 W 32 41 17 22 1007.8 1007.8 3.0
21/07:30am 11.3 6.4 11.3 100 0.0 W 28 46 15 25 1007.3 1007.3 3.0
21/07:00am 11.1 5.6 10.6 97 0.3 WNW 30 41 16 22 1006.3 1006.3 3.0
21/06:38am 11.3 5.4 10.5 95 0.4 WNW 32 50 17 27 1006.0 1006.1 3.0
21/06:30am 11.3 5.4 10.4 94 0.5 WNW 32 44 17 24 1005.9 1005.9 3.0
21/06:00am 11.1 5.0 10.5 96 0.3 WNW 33 59 18 32 1005.6 1005.6 3.0
21/05:37am 11.1 5.2 10.5 96 0.3 WNW 32 50 17 27 1005.2 1005.2 2.8
21/05:30am 11.1 5.1 10.2 94 0.5 WNW 32 48 17 26 1005.2 1005.2 2.4
21/05:00am 11.2 4.5 9.5 89 0.9 NW 35 56 19 30 1004.8 1004.8 2.0
21/04:45am 11.1 4.7 9.5 90 0.8 WNW 33 52 18 28 1004.7 1004.7 2.0
21/04:30am 10.6 4.4 9.4 92 0.6 NW 32 46 17 25 1004.7 1004.7 2.0
21/04:00am 10.2 3.5 8.3 88 0.9 NW 33 50 18 27 1004.7 1004.7 1.8
21/03:30am 9.6 2.6 6.7 82 1.4 NW 33 48 18 26 1005.1 1005.1 1.8
21/03:00am 9.6 1.5 5.2 74 2.0 NNW 37 57 20 31 1005.0 1005.0 1.8
21/02:36am 9.3 0.7 4.7 73 2.1 NNW 39 57 21 31 1004.9 1004.9 1.8
21/02:30am 8.8 0.2 4.4 74 2.0 NNW 39 56 21 30 1005.1 1005.1 1.8
21/02:00am 8.9 0.2 4.1 72 2.1 NNW 39 57 21 31 1006.0 1006.1 1.8
21/01:38am 10.4 0.9 1.5 54 3.8 NNW 41 59 22 32 1006.0 1006.1 1.6
21/01:30am 10.3 1.5 1.4 54 3.8 NNW 37 54 20 29 1006.2 1006.2 1.6
21/01:00am 10.8 1.9 0.8 50 4.2 NNW 37 57 20 31 1006.3 1006.3 1.6
21/12:38am 10.3 1.4 0.9 52 3.9 NNW 37 56 20 30 1006.6 1006.6 1.6
21/12:30am 9.6 0.7 1.0 55 3.6 NNW 37 50 20 27 1006.7 1006.7 1.6
21/12:00am 9.1 -0.5 1.3 58 3.2 NNW 41 54 22 29 1006.9 1006.9 1.6
 
Date/Time
CST
Temp
°C
App
Temp
°C
Dew
Point
°C
Rel
Hum
%
Delta-T
°C
Wind Press
QNH
hPa
Press
MSL
hPa
Rain since
9am
mm
Dir  Spd
km/h
Gust
km/h
Spd
kts
Gust
kts
20/11:30pm 8.9 -0.3 1.3 59 3.2 N 39 52 21 28 1007.7 1007.7 1.6
20/11:17pm 9.0 0.2 1.4 59 3.2 N 37 56 20 30 1008.0 1008.0 1.6
20/11:00pm 8.9 -0.2 1.6 60 3.0 N 39 56 21 30 1008.2 1008.2 1.6
20/10:30pm 9.2 0.1 1.6 59 3.2 NNW 39 52 21 28 1008.5 1008.5 1.6
20/10:03pm 9.5 0.8 1.7 58 3.3 NNW 37 57 20 31 1009.3 1009.3 1.6
20/10:00pm 9.3 0.9 1.7 59 3.2 NNW 35 46 19 25 1009.4 1009.4 1.6
20/09:30pm 8.9 0.5 1.8 61 3.0 N 35 52 19 28 1010.0 1010.0 1.6
20/09:00pm 8.6 -0.1 2.0 63 2.8 N 37 50 20 27 1010.2 1010.2 1.6
20/08:32pm 9.0 0.3 1.9 61 3.0 N 37 56 20 30 1010.4 1010.4 1.6
20/08:30pm 8.9 0.2 2.0 62 2.9 N 37 50 20 27 1010.4 1010.4 1.6
20/08:00pm 8.9 -0.1 2.3 63 2.8 N 39 52 21 28 1010.4 1010.4 1.6
20/07:30pm 9.0 -0.4 2.6 64 2.7 N 41 59 22 32 1010.3 1010.3 1.6
20/07:14pm 9.1 0.5 2.4 63 2.9 N 37 56 20 30 1010.1 1010.1 1.6
20/07:00pm 9.0 0.1 3.0 66 2.6 N 39 54 21 29 1010.3 1010.3 1.6
20/06:43pm 9.3 -0.3 3.3 66 2.6 N 43 61 23 33 1010.3 1010.3 1.6
20/06:30pm 9.3 0.4 3.3 66 2.6 N 39 54 21 29 1010.6 1010.6 1.6
20/06:00pm 9.2 0.8 3.8 69 2.4 N 37 57 20 31 1011.0 1011.1 1.4
20/05:30pm 9.5 1.6 4.1 69 2.4 NNW 35 61 19 33 1012.1 1012.1 1.2
20/05:00pm 9.9 1.6 4.3 68 2.5 N 37 61 20 33 1010.5 1010.5 1.2
20/04:30pm 10.1 0.4 4.0 66 2.7 N 44 63 24 34 1010.4 1010.4 1.2
20/04:00pm 9.7 0.2 4.7 71 2.3 N 44 65 24 35 1010.6 1010.6 1.2
20/03:30pm 9.7 -0.7 4.1 68 2.5 N 48 72 26 39 1010.1 1010.1 1.2
20/03:00pm 9.7 -1.9 4.1 68 2.5 N 54 76 29 41 1009.8 1009.8 1.2
20/02:30pm 9.6 -2.2 4.8 72 2.2 N 56 78 30 42 1009.9 1009.9 1.2
20/02:00pm 9.6 -3.2 4.6 71 2.2 N 61 85 33 46 1010.2 1010.2 1.2
20/01:30pm 9.6 -3.2 4.6 71 2.3 N 61 85 33 46 1010.4 1010.4 1.2
20/01:00pm 9.3 -3.1 4.7 73 2.1 N 59 80 32 43 1011.4 1011.5 1.2
20/12:30pm 9.2 -3.0 5.4 77 1.7 N 59 80 32 43 1012.7 1012.7 1.2
20/12:19pm 8.5 -2.5 5.1 79 1.5 N 52 72 28 39 1013.8 1013.8 1.0
20/12:00pm 9.3 -2.2 4.5 72 2.1 N 54 74 29 40 1015.8 1015.9 0.8
20/11:30am 9.5 -2.4 4.5 71 2.2 NNE 56 76 30 41 1014.7 1014.7 0.4
20/11:06am 8.8 -3.3 4.2 73 2.0 NNE 57 76 31 41 1015.7 1015.8 0.4
20/11:00am 8.3 -3.7 3.6 72 2.0 N 56 72 30 39 1015.9 1016.0 0.4
20/10:54am 8.6 -2.6 4.2 74 1.9 N 52 72 28 39 1016.2 1016.3 0.2
20/10:30am 8.8 -1.7 3.4 69 2.3 N 48 65 26 35 1017.2 1017.3 0.0
20/10:00am 10.1 1.1 2.2 58 3.4 N 39 57 21 31 1019.0 1019.0 0.0
20/09:48am 10.0 2.6 2.1 58 3.4 N 30 48 16 26 1019.5 1019.5 0.0
20/09:30am 9.9 4.7 2.5 60 3.2 NNE 19 32 10 17 1020.4 1020.5 0.0
20/09:00am 9.8 6.5 2.4 60 3.2 N 9 19 5 10 1020.9 1021.0 0.0
20/08:30am 10.0 5.2 2.4 59 3.3 E 17 26 9 14 1020.1 1020.1 0.0
20/08:00am 9.9 5.4 2.0 58 3.4 ENE 15 26 8 14 1020.2 1020.2 0.0
20/07:30am 8.9 4.0 2.0 62 2.9 E 17 24 9 13 1020.0 1020.0 0.0
20/07:00am 8.9 4.0 2.0 62 2.9 ENE 17 28 9 15 1020.2 1020.2 0.0
20/06:30am 8.6 3.4 2.4 65 2.6 NE 19 24 10 13 1020.7 1020.8 0.0
20/06:00am 8.8 1.9 2.4 64 2.7 NNE 28 35 15 19 1020.3 1020.3 0.0
20/05:30am 8.8 1.6 2.8 66 2.6 NNE 30 43 16 23 1020.2 1020.2 0.0
20/05:00am 8.5 0.9 3.1 69 2.3 NNE 32 41 17 22 1020.2 1020.2 0.0
20/04:30am 8.7 1.2 3.7 71 2.2 NNE 32 43 17 23 1020.4 1020.5 0.0
20/04:00am 9.3 3.1 4.1 70 2.3 NNE 26 37 14 20 1020.9 1021.0 0.0
20/03:30am 8.2 4.5 4.4 77 1.7 E 13 20 7 11 1021.2 1021.3 0.0
20/03:00am 7.2 3.6 4.9 85 1.0 E 13 19 7 10 1021.7 1021.8 0.0
20/02:30am 5.9 3.1 5.0 94 0.4 E 9 13 5 7 1022.2 1022.3 0.0
20/02:00am 5.6 1.6 4.9 95 0.3 E 15 17 8 9 1022.6 1022.7 0.0
20/01:30am 5.3 2.3 4.1 92 0.5 ENE 9 11 5 6 1023.0 1023.1 0.0
20/01:00am 5.2 1.7 3.7 90 0.6 NE 11 13 6 7 1023.5 1023.6 0.0
20/12:30am 6.1 2.8 4.4 89 0.7 NE 11 13 6 7 1024.4 1024.4 0.0
20/12:00am 5.1 1.6 3.6 90 0.6 NE 11 13 6 7 1024.7 1024.7 0.0
 
Date/Time
CST
Temp
°C
App
Temp
°C
Dew
Point
°C
Rel
Hum
%
Delta-T
°C
Wind Press
QNH
hPa
Press
MSL
hPa
Rain since
9am
mm
Dir  Spd
km/h
Gust
km/h
Spd
kts
Gust
kts
19/11:30pm 5.9 1.9 4.7 92 0.5 NE 15 17 8 9 1025.1 1025.1 0.0
19/11:00pm 4.6 0.7 3.6 93 0.4 NE 13 15 7 8 1025.3 1025.4 0.0
19/10:30pm 5.4 1.6 3.9 90 0.6 NE 13 15 7 8 1025.9 1026.0 0.0
19/10:00pm 6.7 2.7 4.9 88 0.8 NE 15 19 8 10 1026.0 1026.1 0.0
19/09:30pm 6.3 1.9 4.8 90 0.7 NE 17 19 9 10 1026.2 1026.3 0.0
19/09:00pm 6.4 2.3 4.6 88 0.8 NE 15 17 8 9 1026.6 1026.7 0.0
19/08:30pm 5.3 1.7 3.2 86 0.9 NE 11 15 6 8 1026.7 1026.8 0.0
19/08:00pm 5.8 2.6 3.3 84 1.1 NE 9 11 5 6 1026.8 1026.9 0.0
19/07:30pm 6.5 2.7 3.7 82 1.2 ENE 13 17 7 9 1026.9 1027.0 0.0
19/07:00pm 6.5 2.6 3.5 81 1.3 ENE 13 15 7 8 1026.6 1026.7 0.0
19/06:30pm 7.4 4.3 3.8 78 1.5 ENE 9 11 5 6 1026.7 1026.8 0.0
19/06:00pm 9.4 5.3 4.2 70 2.3 ESE 15 17 8 9 1026.4 1026.5 0.0
19/05:30pm 11.1 6.2 4.1 62 3.1 ESE 19 24 10 13 1026.6 1026.7 0.0
19/05:00pm 12.0 6.9 4.2 59 3.5 ESE 20 26 11 14 1026.6 1026.7 0.0
19/04:30pm 12.7 7.4 4.9 59 3.6 ESE 22 32 12 17 1026.7 1026.8 0.0
19/04:00pm 13.3 8.1 5.7 60 3.6 E 22 30 12 16 1026.8 1026.9 0.0
19/03:30pm 13.5 8.3 5.4 58 3.8 E 22 32 12 17 1026.7 1026.8 0.0
19/03:00pm 14.2 8.7 6.1 58 3.9 E 24 30 13 16 1026.8 1026.9 0.0
19/02:30pm 14.2 9.3 7.0 62 3.5 ESE 22 30 12 16 1026.9 1027.0 0.0
19/02:00pm 14.8 10.4 7.4 61 3.7 ESE 20 28 11 15 1027.1 1027.2 0.0
19/01:30pm 14.2 10.2 6.6 60 3.7 ESE 17 24 9 13 1028.0 1028.1 0.0
19/01:00pm 14.0 9.9 6.4 60 3.7 ESE 17 22 9 12 1028.2 1028.3 0.0
19/12:30pm 13.3 9.6 6.4 63 3.3 ENE 15 19 8 10 1028.6 1028.7 0.0
19/12:00pm 14.0 10.0 6.8 62 3.5 ENE 17 22 9 12 1028.9 1029.0 0.0
19/11:30am 12.6 9.3 6.2 65 3.0 E 13 20 7 11 1029.5 1029.6 0.0
19/11:00am 13.1 10.1 7.8 70 2.6 E 13 19 7 10 1030.0 1030.0 0.0
19/10:30am 11.8 8.7 7.3 74 2.2 ESE 13 17 7 9 1030.1 1030.2 0.0
19/10:00am 11.4 8.6 6.9 74 2.2 SE 11 15 6 8 1030.4 1030.5 0.0
19/09:30am 10.9 8.6 5.7 70 2.4 SSE 7 13 4 7 1030.4 1030.5 0.0
19/09:00am 10.2 8.0 5.4 72 2.2 S 6 9 3 5 1030.3 1030.4 0.0
19/08:30am 9.4 7.6 5.6 77 1.7 NW 4 7 2 4 1030.1 1030.2 0.0
19/08:00am 6.5 3.8 5.5 93 0.4 NW 9 9 5 5 1029.7 1029.8 0.0
19/07:30am 3.9 0.7 3.0 94 0.4 NW 9 9 5 5 1029.2 1029.3 0.0
19/07:00am 3.1 -0.3 2.1 93 0.4 NW 9 9 5 5 1028.9 1029.0 0.0
19/06:30am 3.7 0.4 2.5 92 0.5 WNW 9 11 5 6 1028.6 1028.7 0.0
19/06:00am 3.8 0.1 2.6 92 0.5 NW 11 11 6 6 1028.5 1028.6 0.0
19/05:30am 4.0 0.7 2.7 91 0.5 WNW 9 13 5 7 1028.1 1028.2 0.0
19/05:00am 4.4 0.8 2.9 90 0.6 WNW 11 11 6 6 1027.9 1028.0 0.0
19/04:30am 4.2 0.6 2.9 91 0.5 WNW 11 13 6 7 1027.8 1027.9 0.0
19/04:00am 4.1 0.4 2.6 90 0.6 WNW 11 11 6 6 1027.7 1027.8 0.0
19/03:30am 4.7 1.1 3.2 90 0.6 WNW 11 13 6 7 1027.7 1027.8 0.0
19/03:00am 4.9 1.4 3.4 90 0.6 W 11 13 6 7 1027.7 1027.8 0.0
19/02:30am 5.0 1.5 3.5 90 0.6 WNW 11 13 6 7 1027.8 1027.9 0.0
19/02:00am 5.2 2.1 3.7 90 0.6 WNW 9 13 5 7 1028.0 1028.1 0.0
19/01:30am 5.4 1.9 3.7 89 0.7 WNW 11 13 6 7 1028.1 1028.2 0.0

Other Formats:

Comma delimited format used in spreadsheet applications
http://www.bom.gov.au/fwo/IDS60801/IDS60801.94662.axf

JavaScript Object Notation format (JSON) in row-major order
http://www.bom.gov.au/fwo/IDS60801/IDS60801.94662.json